Data for 10/16/2005

Time Sea-Level Adjusted Pressure Absolute Pressure Temperature Relative Humidity Dew Point   
(mb) (inHg) (mb) (inHg) (C) (F) (%) (C) (F)
00:05 1014 29.94 843 24.89 10.5 50.8 42 -1.9 28.6
00:10 1014 29.94 843 24.89 10.4 50.7 42 -2 28.4
00:15 1014 29.94 843 24.89 10.3 50.5 42 -2.1 28.2
00:20 1014 29.94 843 24.89 10.7 51.3 40 -2.3 27.8
00:25 1014 29.94 843 24.89 11.3 52.3 35 -3.5 25.6
00:30 1014 29.94 843 24.89 11.9 53.5 37 -2.4 27.7
00:35 1014 29.94 843 24.89 11.4 52.6 39 -2.1 28.2
00:40 1014 29.94 843 24.89 10.5 51 41 -2.1 28.2
00:45 1014 29.94 843 24.89 10.6 51.1 40 -2.3 27.8
00:50 1014 29.94 843 24.89 11.1 51.9 38 -2.5 27.4
00:55 1014 29.94 843 24.89 10.8 51.5 41 -2 28.5
01:00 1014 29.94 843 24.89 10.3 50.6 42 -2.1 28.2
01:05 1014 29.94 843 24.89 10.4 50.8 41 -2.2 28
01:10 1014 29.94 843 24.89 10.3 50.6 45 -1 30.2
01:15 1014 29.94 844 24.92 9.9 49.8 45 -1.4 29.5
01:20 1015 29.97 844 24.92 10.1 50.1 43 -1.9 28.7
01:25 1015 29.97 844 24.92 10.5 50.9 41 -2 28.3
01:30 1015 29.97 844 24.92 11 51.7 40 -2.1 28.3
01:35 1015 29.97 844 24.92 11.1 52 41 -1.5 29.2
01:40 1015 29.97 844 24.92 10.8 51.4 42 -1.5 29.4
01:45 1015 29.97 844 24.92 10.6 51.1 43 -1.5 29.3
01:50 1015 29.97 844 24.92 10.5 51 43 -1.4 29.5
01:55 1015 29.97 844 24.92 10.5 50.8 44 -1.4 29.5
02:00 1015 29.97 844 24.92 10.4 50.6 45 -1 30.1
02:05 1015 29.97 844 24.92 9.5 49.1 48 -0.9 30.4
02:10 1015 29.97 844 24.92 9.1 48.3 50 -0.9 30.4
02:15 1015 29.97 844 24.92 9 48.1 50 -0.8 30.6
02:20 1015 29.97 844 24.92 9.1 48.3 49 -1.1 30
02:25 1015 29.97 845 24.95 9.4 49 47 -1.3 29.7
02:30 1015 29.97 845 24.95 9.9 49.7 47 -0.9 30.3
02:35 1016 30 845 24.95 9.4 48.9 50 -0.5 31.1
02:40 1016 30 845 24.95 9 48.2 49 -1.2 29.9
02:45 1016 30 845 24.95 8.9 48 50 -0.9 30.3
02:50 1016 30 845 24.95 8.5 47.3 51 -1 30.1
02:55 1016 30 845 24.95 8.3 46.9 52 -1 30.3
03:00 1016 30 845 24.95 8.7 47.6 50 -1.1 30
03:05 1016 30 845 24.95 8.3 46.9 53 -0.7 30.7
03:10 1016 30 845 24.95 8.2 46.7 53 -0.8 30.6
03:15 1016 30 845 24.95 8.2 46.7 52 -1 30.2
03:20 1016 30 845 24.95 8.6 47.5 52 -0.7 30.7
03:25 1016 30 845 24.95 8.1 46.6 53 -0.8 30.6
03:30 1016 30 846 24.98 8.4 47.1 53 -0.7 30.8
03:35 1016 30 846 24.98 8.6 47.4 53 -0.4 31.2
03:40 1016 30 846 24.98 8.7 47.6 54 -0.1 31.9
03:45 1017 30.03 846 24.98 8.8 47.9 54 0.1 32.1
03:50 1017 30.03 846 24.98 8.9 48.1 54 0.2 32.4
03:55 1017 30.03 846 24.98 8.5 47.3 57 0.6 33.1
04:00 1017 30.03 846 24.98 8 46.4 59 0.4 32.8
04:05 1017 30.03 846 24.98 8.3 47 57 0.4 32.6
04:10 1017 30.03 846 24.98 8.5 47.3 58 0.7 33.3
04:15 1017 30.03 846 24.98 8.4 47 58 0.6 33.1
04:20 1017 30.03 846 24.98 8.3 47 59 0.8 33.5
04:25 1017 30.03 846 24.98 8.3 46.9 57 0.4 32.7
04:30 1017 30.03 846 24.98 8.6 47.5 57 0.5 33
04:35 1017 30.03 846 24.98 8.5 47.3 58 0.7 33.3
04:40 1017 30.03 846 24.98 8.6 47.4 58 0.8 33.4
04:45 1017 30.03 846 24.98 8.5 47.4 58 0.7 33.3
04:50 1017 30.03 846 24.98 8.5 47.3 58 0.7 33.2
04:55 1017 30.03 846 24.98 8.7 47.6 58 0.9 33.6
05:00 1017 30.03 846 24.98 8.5 47.4 59 1 33.8
05:05 1017 30.03 846 24.98 8.1 46.6 60 0.8 33.4
05:10 1017 30.03 846 24.98 7.9 46.2 61 0.8 33.5
05:15 1017 30.03 846 24.98 7.7 45.8 61 0.6 33.1
05:20 1017 30.03 846 24.98 7.7 45.9 61 0.7 33.3
05:25 1017 30.03 846 24.98 7.8 46.1 61 0.7 33.3
05:30 1017 30.03 846 24.98 7.8 46 61 0.7 33.3
05:35 1017 30.03 846 24.98 7.3 45.2 62 0.6 33.1
05:40 1017 30.03 846 24.98 7.2 44.9 63 0.5 32.9
05:45 1017 30.03 846 24.98 7 44.6 63 0.4 32.6
05:50 1017 30.03 846 24.98 6.9 44.4 65 0.8 33.4
05:55 1017 30.03 846 24.98 7 44.7 63 0.5 33
06:00 1017 30.03 847 25.01 7 44.6 63 0.5 32.9
06:05 1017 30.03 847 25.01 6.8 44.3 64 0.5 33
06:10 1017 30.03 847 25.01 6.5 43.8 64 0.2 32.4
06:15 1017 30.03 847 25.01 6.5 43.7 63 0 32.1
06:20 1017 30.03 846 24.98 6.5 43.7 63 -0 32
06:25 1017 30.03 846 24.98 6.5 43.6 63 0 32
06:30 1017 30.03 846 24.98 6.1 42.9 65 -0 31.9
06:35 1017 30.03 846 24.98 5.9 42.7 65 -0.1 31.7
06:40 1017 30.03 846 24.98 5.8 42.4 66 -0 32
06:45 1017 30.03 846 24.98 5.5 41.9 67 -0.1 31.7
06:50 1017 30.03 846 24.98 5.4 41.7 68 -0.1 31.9
06:55 1017 30.03 846 24.98 5.4 41.8 66 -0.3 31.4
07:00 1017 30.03 846 24.98 5.6 42 67 -0.1 31.8
07:05 1017 30.03 847 25.01 5.7 42.2 65 -0.3 31.4
07:10 1017 30.03 846 24.98 5.9 42.6 65 -0.2 31.7
07:15 1017 30.03 847 25.01 5.7 42.2 67 0.1 32.1
07:20 1017 30.03 847 25.01 5.6 42 67 -0 32
07:25 1018 30.06 847 25.01 5.6 42.1 66 -0.1 31.8
07:30 1018 30.06 847 25.01 5.6 42.1 67 -0 31.9
07:35 1018 30.06 847 25.01 5.5 42 67 -0.1 31.8
07:40 1018 30.06 847 25.01 5.7 42.3 67 0 32.1
07:45 1018 30.06 847 25.01 5.7 42.3 69 0.5 33
07:50 1018 30.06 847 25.01 5.7 42.2 69 0.4 32.6
07:55 1018 30.06 847 25.01 5.7 42.3 68 0.2 32.4
08:00 1018 30.06 847 25.01 5.8 42.4 68 0.3 32.6
08:05 1018 30.06 847 25.01 5.8 42.5 69 0.5 32.9
08:10 1018 30.06 847 25.01 6 42.8 67 0.4 32.6
08:15 1018 30.06 847 25.01 6.1 43 67 0.5 32.9
08:20 1018 30.06 847 25.01 6.3 43.3 66 0.4 32.8
08:25 1018 30.06 847 25.01 6.5 43.7 66 0.7 33.2
08:30 1018 30.06 847 25.01 6.4 43.5 67 0.6 33.1
08:35 1018 30.06 847 25.01 6.5 43.8 66 0.7 33.3
08:40 1018 30.06 847 25.01 6.7 44 66 0.7 33.3
08:45 1018 30.06 847 25.01 6.8 44.3 66 0.9 33.6
08:50 1018 30.06 847 25.01 6.9 44.5 66 0.9 33.7
08:55 1018 30.06 847 25.01 7 44.6 65 0.9 33.6
09:00 1018 30.06 847 25.01 7.3 45.2 64 1 33.7
09:05 1018 30.06 847 25.01 7.7 45.8 62 0.8 33.5
09:10 1018 30.06 847 25.01 7.9 46.3 61 0.9 33.6
09:15 1018 30.06 847 25.01 7.9 46.2 62 1.1 33.9
09:20 1018 30.06 847 25.01 8 46.3 61 1 33.9
09:25 1018 30.06 847 25.01 8.1 46.6 61 1 33.8
09:30 1018 30.06 847 25.01 8.1 46.6 61 1.1 34.1
09:35 1018 30.06 847 25.01 7.8 46.1 63 1.3 34.3
09:40 1018 30.06 847 25.01 7.9 46.2 63 1.4 34.5
09:45 1018 30.06 847 25.01 7.8 46.1 66 1.9 35.4
09:50 1018 30.06 848 25.04 7.8 46 68 2.3 36.1
09:55 1018 30.06 848 25.04 7.5 45.6 69 2.2 35.9
10:00 1018 30.06 848 25.04 7.6 45.7 69 2.2 36
10:05 1018 30.06 848 25.04 8.5 47.3 62 1.7 35.1
10:10 1018 30.06 847 25.01 9.6 49.3 59 2.2 35.9
10:15 1018 30.06 847 25.01 10.2 50.3 58 2.3 36.2
10:20 1018 30.06 847 25.01 10.6 51.2 56 2.4 36.2
10:25 1018 30.06 847 25.01 10.8 51.5 54 1.9 35.4
10:30 1018 30.06 847 25.01 11.1 52 53 1.9 35.4
10:35 1018 30.06 847 25.01 12.1 53.8 48 1.6 34.9
10:40 1018 30.06 847 25.01 12.2 54 50 2.3 36.1
10:45 1018 30.06 847 25.01 12.1 53.8 49 1.9 35.5
10:50 1018 30.06 847 25.01 12.6 54.7 47 1.7 35
10:55 1018 30.06 847 25.01 13 55.3 47 2 35.7
11:00 1018 30.06 847 25.01 12.8 55 47 1.7 35
11:05 1018 30.06 847 25.01 13.2 55.8 45 1.7 35.1
11:10 1018 30.06 847 25.01 14 57.2 43 1.6 34.9
11:15 1018 30.06 847 25.01 14.4 57.8 43 2 35.5
11:20 1018 30.06 847 25.01 14.3 57.7 42 1.7 35.1
11:25 1018 30.06 847 25.01 14 57.3 44 2.1 35.8
11:30 1018 30.06 847 25.01 13.3 55.9 47 2.3 36.2
11:35 1018 30.06 847 25.01 12.8 55 49 2.3 36.2
11:40 1018 30.06 847 25.01 13 55.4 48 2.3 36.1
11:45 1018 30.06 847 25.01 13.5 56.2 47 2.6 36.6
11:50 1018 30.06 847 25.01 13.9 57 47 2.7 36.9
11:55 1018 30.06 847 25.01 14.2 57.6 47 3 37.4
12:00 1018 30.06 847 25.01 14.3 57.8 46 3.1 37.5
12:05 1018 30.06 847 25.01 14 57.2 47 2.9 37.3
12:10 1018 30.06 847 25.01 13.9 57 46 2.5 36.5
12:15 1018 30.06 847 25.01 14.1 57.3 45 2.4 36.3
12:20 1018 30.06 847 25.01 14.3 57.7 42 1.6 34.9
12:25 1018 30.06 847 25.01 14 57.2 43 1.9 35.4
12:30 1018 30.06 847 25.01 14.3 57.8 42 1.8 35.2
12:35 1018 30.06 847 25.01 14.6 58.3 41 1.6 35
12:40 1018 30.06 847 25.01 14.5 58.2 42 1.9 35.5
12:45 1018 30.06 847 25.01 14.9 58.8 40 1.4 34.5
12:50 1018 30.06 847 25.01 14.8 58.7 40 1.5 34.8
12:55 1018 30.06 847 25.01 15.3 59.5 37 0.9 33.7
13:00 1018 30.06 847 25.01 15.7 60.2 37 1 33.8
13:05 1018 30.06 847 25.01 16.3 61.3 35 0.8 33.5
13:10 1018 30.06 847 25.01 16.9 62.4 34 0.9 33.5
13:15 1018 30.06 847 25.01 17.1 62.8 34 1.2 34.1
13:20 1018 30.06 847 25.01 16.9 62.5 34 1.2 34.2
13:25 1018 30.06 847 25.01 16.9 62.5 34 1.2 34.1
13:30 1018 30.06 847 25.01 16.8 62.2 35 1.3 34.3
13:35 1018 30.06 847 25.01 16.9 62.5 34 1.3 34.3
13:40 1017 30.03 847 25.01 17.2 63 34 1.3 34.3
13:45 1018 30.06 847 25.01 17.5 63.5 34 1.7 35
13:50 1017 30.03 847 25.01 17.6 63.7 31 0.5 32.8
13:55 1018 30.06 847 25.01 18.1 64.6 23 -3 26.5
14:00 1018 30.06 847 25.01 18.3 65 22 -3.7 25.4
14:05 1017 30.03 847 25.01 18.3 65 24 -2.7 27.1
14:10 1018 30.06 847 25.01 18.5 65.2 24 -2.3 27.8
14:15 1018 30.06 847 25.01 18.7 65.6 28 -0.1 31.8
14:20 1017 30.03 847 25.01 18.8 65.8 26 -0.7 30.7
14:25 1018 30.06 847 25.01 18.8 65.8 26 -0.9 30.5
14:30 1018 30.06 847 25.01 18.4 65 28 -0.3 31.4
14:35 1018 30.06 847 25.01 17.9 64.2 31 0.4 32.8
14:40 1018 30.06 847 25.01 17.3 63.2 34 1.5 34.7
14:45 1017 30.03 847 25.01 16.6 61.9 35 1.4 34.5
14:50 1018 30.06 847 25.01 16.1 61 37 1.5 34.7
14:55 1018 30.06 847 25.01 15.9 60.6 38 1.6 34.9
15:00 1018 30.06 847 25.01 15.8 60.4 37 1.3 34.4
15:05 1018 30.06 847 25.01 15.9 60.5 36 0.8 33.4
15:10 1018 30.06 847 25.01 16.2 61.2 36 1.4 34.5
15:15 1018 30.06 847 25.01 16.3 61.4 35 0.8 33.4
15:20 1018 30.06 847 25.01 16.1 61 36 1.3 34.3
15:25 1017 30.03 847 25.01 15.9 60.7 37 1.2 34.1
15:30 1018 30.06 847 25.01 15.9 60.6 36 1.1 34
15:35 1018 30.06 847 25.01 15.6 60 37 0.9 33.7
15:40 1018 30.06 847 25.01 15.5 59.9 37 1 33.8
15:45 1018 30.06 847 25.01 15.3 59.6 37 0.8 33.4
15:50 1018 30.06 847 25.01 15.2 59.3 36 0.4 32.7
15:55 1018 30.06 847 25.01 14.9 58.9 36 0.1 32.2
16:00 1018 30.06 847 25.01 14.8 58.7 36 0.1 32.1
16:05 1018 30.06 847 25.01 14.7 58.5 37 0.3 32.6
16:10 1018 30.06 847 25.01 14.8 58.6 37 0.2 32.3
16:15 1018 30.06 847 25.01 14.8 58.6 36 -0 32
16:20 1018 30.06 847 25.01 14.7 58.4 38 0.6 33.1
16:25 1018 30.06 847 25.01 14.5 58.2 37 0.1 32.2
16:30 1018 30.06 847 25.01 14.5 58 37 -0 31.9
16:35 1018 30.06 847 25.01 14.5 58.2 36 -0.2 31.7
16:40 1018 30.06 847 25.01 14.6 58.2 36 -0.2 31.6
16:45 1018 30.06 847 25.01 14.5 58 37 0.1 32.1
16:50 1018 30.06 847 25.01 14.5 58.1 36 -0.3 31.5
16:55 1018 30.06 847 25.01 14.6 58.2 36 -0.3 31.5
17:00 1018 30.06 847 25.01 14.3 57.7 37 -0.1 31.8
17:05 1018 30.06 847 25.01 14.1 57.4 38 0.1 32.2
17:10 1018 30.06 847 25.01 13.8 56.9 38 -0.2 31.6
17:15 1018 30.06 847 25.01 14.1 57.4 37 -0.3 31.5
17:20 1018 30.06 847 25.01 14.3 57.7 37 -0.1 31.9
17:25 1018 30.06 847 25.01 13.7 56.7 39 -0.1 31.9
17:30 1018 30.06 847 25.01 13.6 56.5 38 -0.5 31.2
17:35 1018 30.06 847 25.01 13.5 56.4 38 -0.6 30.9
17:40 1018 30.06 847 25.01 13.6 56.5 37 -0.6 31
17:45 1018 30.06 847 25.01 13.7 56.7 37 -0.5 31.2
17:50 1018 30.06 847 25.01 13.8 56.8 36 -0.8 30.5
17:55 1018 30.06 847 25.01 13.8 56.8 39 -0 31.9
18:00 1018 30.06 847 25.01 13.1 55.6 42 0.6 33
18:05 1018 30.06 847 25.01 12.9 55.2 41 0 32
18:10 1018 30.06 847 25.01 13 55.3 41 -0 32
18:15 1018 30.06 847 25.01 12.7 54.8 40 -0.4 31.2
18:20 1018 30.06 847 25.01 12.7 54.8 39 -0.8 30.6
18:25 1018 30.06 847 25.01 13.1 55.6 38 -0.9 30.5
18:30 1018 30.06 847 25.01 13.3 56 36 -1.2 29.8
18:35 1018 30.06 847 25.01 13.5 56.2 34 -1.9 28.6
18:40 1018 30.06 847 25.01 13.6 56.4 34 -2 28.4
18:45 1018 30.06 847 25.01 13.5 56.3 38 -0.6 30.9
18:50 1018 30.06 847 25.01 13.4 56.2 38 -0.6 30.9
18:55 1018 30.06 847 25.01 13.5 56.3 35 -1.6 29
19:00 1018 30.06 847 25.01 13.6 56.5 32 -2.6 27.3
19:05 1018 30.06 847 25.01 13.9 57 32 -2.6 27.4
19:10 1018 30.06 847 25.01 14.1 57.4 31 -2.7 27.1
19:15 1018 30.06 847 25.01 14.2 57.5 29 -3.6 25.5
19:20 1018 30.06 847 25.01 14.2 57.5 30 -2.9 26.8
19:25 1018 30.06 847 25.01 14 57.1 31 -2.7 27.2
19:30 1018 30.06 847 25.01 13.7 56.7 31 -3.1 26.4
19:35 1018 30.06 847 25.01 13.7 56.7 30 -3.3 26
19:40 1018 30.06 847 25.01 13.8 56.9 30 -3.2 26.3
19:45 1018 30.06 847 25.01 13.7 56.7 32 -2.7 27.2
19:50 1018 30.06 847 25.01 13.6 56.6 30 -3.4 25.9
19:55 1018 30.06 847 25.01 13.8 56.8 30 -3.5 25.7
20:00 1018 30.06 847 25.01 13.7 56.7 30 -3.5 25.6
20:05 1018 30.06 847 25.01 13.5 56.3 31 -3.1 26.3
20:10 1018 30.06 848 25.04 13.3 56 30 -3.7 25.3
20:15 1018 30.06 848 25.04 13.2 55.7 32 -3.3 26
20:20 1018 30.06 848 25.04 13 55.4 34 -2.4 27.7
20:25 1018 30.06 848 25.04 12.8 55 33 -3.2 26.2
20:30 1018 30.06 848 25.04 12.8 55 33 -3 26.7
20:35 1018 30.06 848 25.04 12.8 55 33 -3.1 26.4
20:40 1019 30.09 848 25.04 12.9 55.2 32 -3.5 25.7
20:45 1019 30.09 848 25.04 13.2 55.7 31 -3.4 25.9
20:50 1019 30.09 848 25.04 13.4 56.1 31 -3.4 25.8
20:55 1019 30.09 848 25.04 13.3 55.9 31 -3.6 25.6
21:00 1019 30.09 848 25.04 13.3 56 30 -3.9 24.9
21:05 1019 30.09 848 25.04 13.4 56 30 -3.6 25.5
21:10 1019 30.09 848 25.04 13.4 56.1 30 -3.8 25.2
21:15 1019 30.09 848 25.04 13.6 56.4 29 -4 24.9
21:20 1019 30.09 848 25.04 13.6 56.5 31 -3.3 26
21:25 1019 30.09 848 25.04 13.6 56.4 31 -3.3 26.1
21:30 1019 30.09 848 25.04 13.4 56.1 31 -3.5 25.7
21:35 1019 30.09 848 25.04 13.4 56 30 -3.7 25.3
21:40 1019 30.09 848 25.04 13.4 56.2 30 -3.6 25.6
21:45 1019 30.09 848 25.04 13.4 56.1 30 -3.6 25.5
21:50 1019 30.09 849 25.07 13.2 55.8 32 -3.2 26.3
21:55 1019 30.09 848 25.04 13.2 55.7 32 -3.3 26.1
22:00 1019 30.09 849 25.07 13.2 55.7 31 -3.4 25.9
22:05 1019 30.09 849 25.07 13.2 55.8 32 -3.2 26.3
22:10 1019 30.09 849 25.07 13.3 55.9 32 -3.2 26.3
22:15 1019 30.09 849 25.07 13.3 55.9 32 -2.9 26.7
22:20 1019 30.09 849 25.07 13.1 55.6 33 -2.7 27.1
22:25 1020 30.12 849 25.07 13 55.4 33 -2.8 26.9
22:30 1020 30.12 849 25.07 13 55.5 33 -2.8 26.9
22:35 1020 30.12 849 25.07 13 55.4 33 -2.8 26.9
22:40 1020 30.12 849 25.07 12.9 55.3 33 -2.8 26.9
22:45 1020 30.12 849 25.07 12.9 55.1 34 -2.7 27.2
22:50 1020 30.12 849 25.07 12.8 55 34 -2.7 27.1
22:55 1020 30.12 849 25.07 12.7 54.8 33 -2.9 26.8
23:00 1020 30.12 849 25.07 12.8 55 34 -2.7 27.1
23:05 1020 30.12 849 25.07 12.6 54.7 35 -2.4 27.7
23:10 1020 30.12 849 25.07 12.2 53.9 36 -2.6 27.3
23:15 1020 30.12 849 25.07 12.1 53.8 36 -2.5 27.6
23:20 1020 30.12 849 25.07 12.2 53.9 36 -2.3 27.8
23:25 1020 30.12 849 25.07 12.3 54.1 36 -2.3 27.8
23:30 1020 30.12 849 25.07 12.1 53.7 39 -1.5 29.2
23:35 1020 30.12 849 25.07 11.4 52.5 40 -1.8 28.8
23:40 1020 30.12 849 25.07 11.3 52.3 40 -1.8 28.8
23:45 1020 30.12 849 25.07 11.3 52.4 41 -1.3 29.6
23:50 1020 30.12 849 25.07 11.2 52.1 42 -1.3 29.7
23:55 1020 30.12 849 25.07 11.1 51.9 41 -1.6 29.2
24:00 1020 30.12 849 25.07 11.2 52.1 41 -1.7 29